createdAt,value
2022-09-05T00:02:03.469Z,2.60
2022-09-05T00:07:31.103Z,2.70
2022-09-05T00:12:42.702Z,3.10
2022-09-05T00:19:03.879Z,2.40
2022-09-05T00:24:32.277Z,2.55
2022-09-05T00:29:16.274Z,2.47
2022-09-05T00:34:47.756Z,2.75
2022-09-05T00:40:17.962Z,2.93
2022-09-05T00:45:25.283Z,3.03
2022-09-05T00:50:43.117Z,2.97
2022-09-05T00:56:15.960Z,2.90
2022-09-05T01:01:38.734Z,2.88
2022-09-05T01:07:09.407Z,3.35
2022-09-05T01:12:48.546Z,2.88
2022-09-05T01:18:00.377Z,3.08
2022-09-05T01:23:29.986Z,2.75
2022-09-05T01:29:18.449Z,3.25
2022-09-05T01:34:54.352Z,3.13
2022-09-05T01:40:26.348Z,3.30
2022-09-05T01:45:57.035Z,3.58
2022-09-05T01:51:42.161Z,3.30
2022-09-05T01:56:49.893Z,3.47
2022-09-05T02:02:23.811Z,3.40
2022-09-05T02:08:16.090Z,3.38
2022-09-05T02:13:33.825Z,3.47
2022-09-05T02:19:09.666Z,3.22
2022-09-05T02:24:23.992Z,4.03
2022-09-05T02:29:36.151Z,3.75
2022-09-05T02:34:50.924Z,4.22
2022-09-05T02:45:04.365Z,3.80
2022-09-05T02:46:04.062Z,3.70
2022-09-05T02:55:17.861Z,3.75
2022-09-05T02:57:44.999Z,3.58
2022-09-05T03:02:30.217Z,3.90
2022-09-05T03:07:50.214Z,3.90
2022-09-05T03:13:01.463Z,4.10
2022-09-05T03:18:37.324Z,4.25
2022-09-05T03:24:00.604Z,4.00
2022-09-05T03:29:14.543Z,4.00
2022-09-05T03:34:47.250Z,3.95
2022-09-05T03:40:16.817Z,3.97
2022-09-05T03:45:37.772Z,4.38
2022-09-05T03:57:07.682Z,4.28
2022-09-05T03:57:28.307Z,3.67
2022-09-05T04:07:04.991Z,4.60
2022-09-05T04:08:15.119Z,4.68
2022-09-05T04:13:36.898Z,4.50
2022-09-05T04:18:48.798Z,4.35
2022-09-05T04:24:12.881Z,4.10
2022-09-05T04:29:39.590Z,4.65
2022-09-05T04:35:10.456Z,4.43
2022-09-05T04:40:32.974Z,4.65
2022-09-05T04:45:51.436Z,4.38
2022-09-05T04:51:08.297Z,4.30
2022-09-05T04:56:20.354Z,4.43
2022-09-05T05:06:00.769Z,4.32
2022-09-05T05:07:22.829Z,4.82
2022-09-05T05:17:59.035Z,4.00
2022-09-05T05:18:38.644Z,4.30
2022-09-05T05:23:52.878Z,3.90
2022-09-05T05:29:19.559Z,4.75
2022-09-05T05:34:30.313Z,3.92
2022-09-05T05:39:36.894Z,4.28
2022-09-05T05:44:39.106Z,4.55
2022-09-05T05:49:59.001Z,5.03
2022-09-05T05:55:50.353Z,4.55
2022-09-05T06:00:53.289Z,4.00
2022-09-05T06:06:25.715Z,4.03
2022-09-05T06:14:58.708Z,3.67
2022-09-05T06:17:28.096Z,3.58
2022-09-05T06:22:59.667Z,3.70
2022-09-05T06:28:44.814Z,4.55
2022-09-05T06:33:58.311Z,3.42
2022-09-05T06:39:11.208Z,4.22
2022-09-05T06:44:45.100Z,4.03
2022-09-05T06:50:26.857Z,3.45
2022-09-05T06:56:11.055Z,3.75
2022-09-05T07:01:44.758Z,3.97
2022-09-05T07:07:09.937Z,3.70
2022-09-05T07:12:28.649Z,4.28
2022-09-05T07:18:08.642Z,3.45
2022-09-05T07:23:46.062Z,3.72
2022-09-05T07:28:52.825Z,3.53
2022-09-05T07:34:21.276Z,3.80
2022-09-05T07:39:29.603Z,3.40
2022-09-05T07:44:38.791Z,3.35
2022-09-05T07:49:56.585Z,3.23
2022-09-05T07:57:06.381Z,3.22
2022-09-05T08:00:52.874Z,3.65
2022-09-05T08:05:59.490Z,3.17
2022-09-05T08:11:24.277Z,2.88
2022-09-05T08:16:28.225Z,2.90
2022-09-05T08:21:51.944Z,3.05
2022-09-05T08:27:18.218Z,2.85
2022-09-05T08:32:46.322Z,2.90
2022-09-05T08:37:51.841Z,3.08
2022-09-05T08:45:35.157Z,2.85
2022-09-05T08:49:36.470Z,3.15
2022-09-05T08:55:21.680Z,3.15
2022-09-05T09:00:24.681Z,2.70
2022-09-05T09:05:56.667Z,2.63
2022-09-05T09:11:05.482Z,3.10
2022-09-05T09:16:25.692Z,3.08
2022-09-05T09:21:42.606Z,3.65
2022-09-05T09:27:04.803Z,3.05
2022-09-05T09:32:15.161Z,2.90
2022-09-05T09:37:50.093Z,3.40
2022-09-05T09:43:07.073Z,3.13
2022-09-05T09:48:30.408Z,3.08
2022-09-05T09:53:53.309Z,3.42
2022-09-05T09:59:08.687Z,2.88
2022-09-05T10:10:39.166Z,3.17
2022-09-05T10:10:53.065Z,3.10
2022-09-05T10:15:31.302Z,2.83
2022-09-05T10:21:13.899Z,2.65
2022-09-05T10:26:37.258Z,2.70
2022-09-05T10:35:10.271Z,2.78
2022-09-05T10:37:40.450Z,2.47
2022-09-05T10:43:00.998Z,2.50
2022-09-05T10:48:29.741Z,2.60
2022-09-05T10:54:23.973Z,2.70
2022-09-05T11:02:22.883Z,2.28
2022-09-05T11:05:06.309Z,2.42
2022-09-05T11:10:17.420Z,2.30
2022-09-05T11:15:27.303Z,2.47
2022-09-05T11:20:35.069Z,2.50
2022-09-05T11:25:41.019Z,2.60
2022-09-05T11:30:54.715Z,2.55
2022-09-05T11:39:58.279Z,2.60
2022-09-05T11:42:07.193Z,2.30
2022-09-05T11:47:40.944Z,2.30
2022-09-05T11:53:04.932Z,2.50
2022-09-05T11:58:53.808Z,2.13
2022-09-05T12:04:09.993Z,2.00
2022-09-05T12:09:31.903Z,2.22
2022-09-05T12:14:55.025Z,2.20
2022-09-05T12:20:16.766Z,2.30
2022-09-05T12:27:38.153Z,2.00
2022-09-05T12:32:34.447Z,2.30
2022-09-05T12:42:10.308Z,1.95
2022-09-05T12:42:19.956Z,2.17
2022-09-05T12:47:30.250Z,2.25
2022-09-05T12:52:33.754Z,2.33
2022-09-05T13:00:58.506Z,2.15
2022-09-05T13:03:27.836Z,1.65
2022-09-05T13:08:44.040Z,1.80
2022-09-05T13:19:33.997Z,1.90
2022-09-05T13:24:41.478Z,1.50
2022-09-05T13:31:23.260Z,1.90
2022-09-05T13:38:06.158Z,1.80
2022-09-05T13:47:49.776Z,1.50
2022-09-05T13:53:19.524Z,1.83
2022-09-05T13:58:50.992Z,1.77
2022-09-05T14:09:59.965Z,1.65
2022-09-05T14:15:09.432Z,1.50
2022-09-05T14:20:30.682Z,1.60
2022-09-05T14:25:44.277Z,1.58
2022-09-05T14:32:53.095Z,1.60
2022-09-05T14:37:53.650Z,1.48
2022-09-05T14:42:15.839Z,1.40
2022-09-05T14:47:36.382Z,1.63
2022-09-05T14:52:43.431Z,1.48
2022-09-05T15:02:46.439Z,1.70
2022-09-05T15:12:14.023Z,1.42
2022-09-05T15:14:38.466Z,1.20
2022-09-05T15:19:49.373Z,1.45
2022-09-05T15:25:22.641Z,1.55
2022-09-05T15:30:36.539Z,1.30
2022-09-05T15:35:43.443Z,1.10
2022-09-05T15:40:45.151Z,1.02
2022-09-05T15:45:50.070Z,1.30
2022-09-05T15:50:55.424Z,1.30
2022-09-05T15:56:18.163Z,1.45
2022-09-05T16:01:35.868Z,0.90
2022-09-05T16:10:28.588Z,1.10
2022-09-05T16:12:43.958Z,1.10
2022-09-05T16:24:58.092Z,1.23
2022-09-05T16:30:02.006Z,1.55
2022-09-05T16:35:08.109Z,1.65
2022-09-05T16:40:25.612Z,1.50
2022-09-05T16:45:47.571Z,1.15
2022-09-05T16:51:13.246Z,1.38
2022-09-05T16:56:23.567Z,1.27
2022-09-05T17:01:54.691Z,1.23
2022-09-05T17:07:21.299Z,1.13
2022-09-05T17:12:31.350Z,0.98
2022-09-05T17:18:22.732Z,1.02
2022-09-05T17:28:01.149Z,1.70
2022-09-05T17:29:32.868Z,1.50
2022-09-05T17:34:20.912Z,1.40
2022-09-05T17:39:44.920Z,1.73
2022-09-05T17:44:59.874Z,1.90
2022-09-05T17:50:33.086Z,1.90
2022-09-05T17:55:34.910Z,2.55
2022-09-05T18:00:44.078Z,2.03
2022-09-05T18:06:01.073Z,2.00
2022-09-05T18:11:14.011Z,1.90
2022-09-05T18:16:42.136Z,1.52
2022-09-05T18:22:21.555Z,1.88
2022-09-05T18:28:03.373Z,1.98
2022-09-05T18:33:53.593Z,1.75
2022-09-05T18:38:49.960Z,1.85
2022-09-05T18:44:20.377Z,1.65
2022-09-05T18:50:24.179Z,2.00
2022-09-05T18:56:10.575Z,1.63
2022-09-05T19:00:24.666Z,1.77
2022-09-05T19:05:46.001Z,1.60
2022-09-05T19:10:52.392Z,1.98
2022-09-05T19:16:42.682Z,1.90
2022-09-05T19:21:33.506Z,2.33
2022-09-05T19:26:35.524Z,2.13
2022-09-05T19:36:49.198Z,2.30
2022-09-05T19:37:26.102Z,2.35
2022-09-05T19:47:37.696Z,1.70
2022-09-05T19:48:18.039Z,2.42
2022-09-05T19:53:21.070Z,2.00
2022-09-05T19:58:24.552Z,2.03
2022-09-05T20:03:26.153Z,2.30
2022-09-05T20:08:34.199Z,2.67
2022-09-05T20:13:35.787Z,2.45
2022-09-05T20:18:42.718Z,2.50
2022-09-05T20:23:49.220Z,2.40
2022-09-05T20:29:01.309Z,2.60
2022-09-05T20:34:56.789Z,2.65
2022-09-05T20:43:32.631Z,3.00
2022-09-05T20:45:05.037Z,2.78
2022-09-05T20:54:06.322Z,2.70
2022-09-05T20:55:44.868Z,2.78
2022-09-05T21:01:20.299Z,2.92
2022-09-05T21:06:33.755Z,2.58
2022-09-05T21:11:35.975Z,3.15
2022-09-05T21:16:45.274Z,2.83
2022-09-05T21:22:05.028Z,3.03
2022-09-05T21:27:15.440Z,2.90
2022-09-05T21:32:18.502Z,2.97
2022-09-05T21:37:21.424Z,3.08
2022-09-05T21:44:37.885Z,3.10
2022-09-05T21:47:53.178Z,3.20
2022-09-05T21:52:58.977Z,3.53
2022-09-05T21:59:27.447Z,3.47
2022-09-05T22:03:40.200Z,3.80
2022-09-05T22:08:42.639Z,4.00
2022-09-05T22:14:04.173Z,3.53
2022-09-05T22:19:05.745Z,3.60
2022-09-05T22:24:11.292Z,3.28
2022-09-05T22:29:16.390Z,3.22
2022-09-05T22:34:17.951Z,3.80
2022-09-05T22:39:27.412Z,4.00
2022-09-05T22:49:41.533Z,3.13
2022-09-05T22:54:43.095Z,3.35
2022-09-05T22:59:44.638Z,3.95
2022-09-05T23:04:46.189Z,3.83
2022-09-05T23:09:47.833Z,3.50
2022-09-05T23:14:49.426Z,4.03
2022-09-05T23:19:50.977Z,3.97
2022-09-05T23:24:52.564Z,4.35
2022-09-05T23:29:54.132Z,4.47
2022-09-05T23:34:55.688Z,4.35
2022-09-05T23:39:57.929Z,4.00
2022-09-05T23:44:59.515Z,4.13
2022-09-05T23:50:01.080Z,4.15
2022-09-05T23:55:02.663Z,4.07
